createdAt,value
2019-02-23T00:04:06.010Z,85.13
2019-02-23T00:09:08.137Z,85.43
2019-02-23T00:14:10.382Z,85.49
2019-02-23T00:19:12.410Z,85.51
2019-02-23T00:24:17.624Z,85.61
2019-02-23T00:29:19.678Z,85.46
2019-02-23T00:34:25.569Z,85.74
2019-02-23T00:39:27.640Z,85.84
2019-02-23T00:44:32.197Z,86.00
2019-02-23T00:49:36.507Z,86.26
2019-02-23T00:54:40.846Z,86.12
2019-02-23T00:59:43.153Z,86.09
2019-02-23T01:04:45.214Z,86.31
2019-02-23T01:09:47.244Z,86.41
2019-02-23T01:14:51.825Z,86.63
2019-02-23T01:19:55.636Z,86.74
2019-02-23T01:24:59.315Z,86.75
2019-02-23T01:30:02.771Z,86.62
2019-02-23T01:35:04.999Z,86.54
2019-02-23T01:40:11.762Z,86.43
2019-02-23T01:45:14.301Z,86.32
2019-02-23T01:50:16.363Z,86.41
2019-02-23T01:55:22.956Z,86.10
2019-02-23T02:00:25.437Z,86.17
2019-02-23T02:05:30.428Z,86.34
2019-02-23T02:10:34.025Z,86.27
2019-02-23T02:15:38.782Z,86.49
2019-02-23T02:20:40.949Z,86.61
2019-02-23T02:25:43.047Z,86.56
2019-02-23T02:30:48.274Z,86.11
2019-02-23T02:35:57.392Z,86.14
2019-02-23T02:40:59.675Z,86.33
2019-02-23T02:46:01.699Z,86.41
2019-02-23T02:51:03.760Z,86.87
2019-02-23T02:56:05.857Z,86.80
2019-02-23T03:01:08.243Z,86.79
2019-02-23T03:06:10.300Z,86.62
2019-02-23T03:11:12.510Z,87.01
2019-02-23T03:16:14.587Z,86.98
2019-02-23T03:21:19.795Z,87.03
2019-02-23T03:26:21.899Z,87.06
2019-02-23T03:31:27.623Z,87.12
2019-02-23T03:36:29.640Z,87.07
2019-02-23T03:41:32.896Z,87.03
2019-02-23T03:46:36.558Z,86.96
2019-02-23T03:51:41.294Z,86.92
2019-02-23T03:56:44.742Z,86.94
2019-02-23T04:01:54.880Z,86.93
2019-02-23T04:06:58.272Z,86.60
2019-02-23T04:12:00.437Z,86.84
2019-02-23T04:17:02.576Z,86.84
2019-02-23T04:22:04.831Z,86.73
2019-02-23T04:27:06.874Z,86.64
2019-02-23T04:32:09.422Z,86.74
2019-02-23T04:37:11.442Z,86.39
2019-02-23T04:42:13.486Z,86.59
2019-02-23T04:47:15.504Z,86.40
2019-02-23T04:52:17.608Z,86.53
2019-02-23T04:57:19.696Z,86.45
2019-02-23T05:02:21.887Z,86.70
2019-02-23T05:07:27.631Z,86.65
2019-02-23T05:12:29.853Z,86.56
2019-02-23T05:17:31.893Z,86.54
2019-02-23T05:22:33.981Z,86.21
2019-02-23T05:27:36.100Z,86.48
2019-02-23T05:32:38.277Z,86.41
2019-02-23T05:37:40.385Z,86.53
2019-02-23T05:42:47.662Z,86.28
2019-02-23T05:47:49.690Z,86.39
2019-02-23T05:52:51.769Z,86.76
2019-02-23T05:57:53.784Z,86.81
2019-02-23T06:02:57.331Z,86.86
2019-02-23T06:07:59.675Z,86.92
2019-02-23T06:13:02.893Z,86.72
2019-02-23T06:18:12.471Z,86.79
2019-02-23T06:23:17.611Z,86.95
2019-02-23T06:28:22.226Z,86.95
2019-02-23T06:33:27.044Z,87.11
2019-02-23T06:38:29.084Z,87.15
2019-02-23T06:43:32.814Z,87.08
2019-02-23T06:48:34.945Z,86.77
2019-02-23T06:53:41.654Z,86.71
2019-02-23T06:58:45.391Z,86.68
2019-02-23T07:03:47.472Z,86.71
2019-02-23T07:08:49.558Z,86.48
2019-02-23T07:13:51.694Z,86.39
2019-02-23T07:18:53.736Z,86.03
2019-02-23T07:24:00.590Z,85.64
2019-02-23T07:29:04.391Z,85.33
2019-02-23T07:34:11.640Z,84.93
2019-02-23T07:39:13.940Z,84.15
2019-02-23T07:44:16.188Z,84.20
2019-02-23T07:49:18.217Z,83.62
2019-02-23T07:54:22.647Z,83.11
2019-02-23T07:59:24.751Z,82.33
2019-02-23T08:04:26.915Z,82.24
2019-02-23T08:09:31.556Z,81.92
2019-02-23T08:14:33.534Z,81.45
2019-02-23T08:19:35.572Z,80.39
2019-02-23T08:24:37.910Z,79.96
2019-02-23T08:29:39.907Z,80.44
2019-02-23T08:34:42.167Z,80.04
2019-02-23T08:39:44.309Z,79.00
2019-02-23T08:44:46.322Z,78.77
2019-02-23T08:49:50.210Z,78.33
2019-02-23T08:54:52.250Z,77.99
2019-02-23T08:59:54.325Z,78.58
2019-02-23T09:04:56.473Z,77.40
2019-02-23T09:09:58.509Z,78.74
2019-02-23T09:15:03.819Z,78.09
2019-02-23T09:20:06.033Z,77.17
2019-02-23T09:25:12.675Z,77.14
2019-02-23T09:30:23.045Z,77.77
2019-02-23T09:35:25.104Z,76.03
2019-02-23T09:40:32.049Z,76.32
2019-02-23T09:45:34.091Z,77.00
2019-02-23T09:50:36.521Z,75.75
2019-02-23T09:55:40.439Z,75.85
2019-02-23T10:00:44.341Z,75.35
2019-02-23T10:05:46.358Z,73.94
2019-02-23T10:10:48.518Z,74.84
2019-02-23T10:15:52.079Z,74.52
2019-02-23T10:20:59.025Z,72.97
2019-02-23T10:26:02.298Z,73.58
2019-02-23T10:31:05.534Z,73.34
2019-02-23T10:36:07.579Z,73.53
2019-02-23T10:41:09.657Z,72.83
2019-02-23T10:46:12.248Z,72.23
2019-02-23T10:51:17.666Z,71.98
2019-02-23T10:56:19.797Z,70.73
2019-02-23T11:01:22.032Z,71.42
2019-02-23T11:06:24.066Z,70.20
2019-02-23T11:11:26.255Z,70.96
2019-02-23T11:16:28.266Z,70.30
2019-02-23T11:21:31.750Z,70.58
2019-02-23T11:26:34.288Z,69.24
2019-02-23T11:31:36.796Z,69.45
2019-02-23T11:36:38.807Z,70.00
2019-02-23T11:41:40.862Z,68.86
2019-02-23T11:46:59.204Z,69.11
2019-02-23T11:51:49.578Z,68.00
2019-02-23T11:56:51.707Z,68.77
2019-02-23T12:01:55.133Z,68.44
2019-02-23T12:06:57.209Z,67.46
2019-02-23T12:11:59.548Z,66.79
2019-02-23T12:17:01.540Z,67.41
2019-02-23T12:22:12.063Z,67.60
2019-02-23T12:27:08.063Z,66.00
2019-02-23T12:32:15.875Z,65.89
2019-02-23T12:37:19.684Z,65.76
2019-02-23T12:42:21.695Z,66.33
2019-02-23T12:47:23.699Z,65.31
2019-02-23T12:52:28.731Z,63.15
2019-02-23T12:57:30.792Z,63.31
2019-02-23T13:02:33.006Z,61.61
2019-02-23T13:07:39.065Z,61.77
2019-02-23T13:13:03.115Z,61.25
2019-02-23T13:18:36.769Z,60.86
2019-02-23T13:24:04.433Z,60.67
2019-02-23T13:29:52.092Z,60.37
2019-02-23T13:35:40.986Z,60.88
2019-02-23T13:41:11.630Z,59.96
2019-02-23T13:46:48.320Z,59.82
2019-02-23T13:52:18.612Z,60.47
2019-02-23T13:58:01.892Z,60.84
2019-02-23T14:03:44.551Z,60.78
2019-02-23T14:09:33.671Z,59.69
2019-02-23T14:15:03.366Z,59.16
2019-02-23T14:20:48.253Z,57.20
2019-02-23T14:26:41.176Z,56.08
2019-02-23T14:32:04.743Z,57.69
2019-02-23T14:37:38.320Z,57.41
2019-02-23T14:43:25.180Z,57.63
2019-02-23T14:49:07.425Z,56.18
2019-02-23T14:55:00.722Z,57.01
2019-02-23T15:00:50.895Z,58.97
2019-02-23T15:06:24.247Z,58.72
2019-02-23T15:11:47.323Z,59.10
2019-02-23T15:17:31.960Z,59.32
2019-02-23T15:23:00.235Z,57.72
2019-02-23T15:28:37.608Z,57.72
2019-02-23T15:34:22.490Z,57.84
2019-02-23T15:39:54.505Z,58.75
2019-02-23T15:45:57.160Z,58.84
2019-02-23T15:51:02.339Z,51.43
2019-02-23T15:56:12.708Z,51.43
2019-02-23T16:01:15.054Z,54.43
2019-02-23T16:06:18.355Z,56.21
2019-02-23T16:11:21.592Z,56.50
2019-02-23T16:16:23.652Z,56.08
2019-02-23T16:21:25.744Z,57.02
2019-02-23T16:26:27.754Z,57.82
2019-02-23T16:31:32.637Z,58.45
2019-02-23T16:36:34.652Z,59.14
2019-02-23T16:41:40.449Z,60.18
2019-02-23T16:46:46.463Z,60.18
2019-02-23T16:51:51.722Z,59.96
2019-02-23T16:56:53.779Z,60.38
2019-02-23T17:01:57.395Z,59.54
2019-02-23T17:06:59.652Z,59.97
2019-02-23T17:12:02.024Z,58.30
2019-02-23T17:17:04.058Z,57.26
2019-02-23T17:22:06.059Z,57.35
2019-02-23T17:27:10.125Z,56.04
2019-02-23T17:32:16.331Z,56.05
2019-02-23T17:37:20.288Z,55.43
2019-02-23T17:42:28.094Z,56.40
2019-02-23T17:47:26.294Z,56.62
2019-02-23T17:52:29.193Z,56.61
2019-02-23T17:57:34.150Z,57.73
2019-02-23T18:02:38.224Z,57.80
2019-02-23T18:07:40.813Z,57.91
2019-02-23T18:12:43.326Z,58.11
2019-02-23T18:17:45.380Z,58.92
2019-02-23T18:22:48.516Z,58.75
2019-02-23T18:27:53.669Z,59.08
2019-02-23T18:32:55.753Z,58.33
2019-02-23T18:38:02.825Z,57.14
2019-02-23T18:43:07.504Z,56.97
2019-02-23T18:48:12.588Z,57.07
2019-02-23T18:53:19.909Z,57.06
2019-02-23T18:58:23.273Z,56.77
2019-02-23T19:03:25.510Z,56.96
2019-02-23T19:08:28.921Z,57.21
2019-02-23T19:13:31.233Z,57.11
2019-02-23T19:18:33.354Z,57.18
2019-02-23T19:23:35.644Z,57.39
2019-02-23T19:28:43.168Z,57.79
2019-02-23T19:33:47.739Z,58.69
2019-02-23T19:38:52.676Z,57.49
2019-02-23T19:43:57.162Z,58.13
2019-02-23T19:48:59.303Z,57.90
2019-02-23T19:54:02.754Z,58.74
2019-02-23T19:59:08.085Z,59.15
2019-02-23T20:04:11.493Z,59.44
2019-02-23T20:09:13.544Z,59.90
2019-02-23T20:14:15.700Z,60.10
2019-02-23T20:19:19.650Z,60.97
2019-02-23T20:24:21.902Z,61.42
2019-02-23T20:29:26.123Z,61.43
2019-02-23T20:34:32.933Z,61.85
2019-02-23T20:39:34.986Z,62.55
2019-02-23T20:44:38.226Z,63.28
2019-02-23T20:49:40.327Z,64.12
2019-02-23T20:54:43.851Z,63.44
2019-02-23T20:59:48.831Z,64.16
2019-02-23T21:04:52.807Z,61.42
2019-02-23T21:09:55.063Z,61.85
2019-02-23T21:15:00.924Z,59.81
2019-02-23T21:20:03.150Z,59.00
2019-02-23T21:25:07.978Z,58.56
2019-02-23T21:30:10.522Z,56.76
2019-02-23T21:35:15.170Z,56.51
2019-02-23T21:40:19.956Z,55.58
2019-02-23T21:45:34.766Z,55.39
2019-02-23T21:50:32.530Z,55.93
2019-02-23T21:55:37.432Z,54.93
2019-02-23T22:00:42.482Z,55.84
2019-02-23T22:05:46.725Z,54.28
2019-02-23T22:10:48.797Z,54.66
2019-02-23T22:15:53.245Z,54.32
2019-02-23T22:20:55.546Z,55.21
2019-02-23T22:25:57.565Z,54.44
2019-02-23T22:31:01.858Z,54.09
2019-02-23T22:36:08.777Z,54.64
2019-02-23T22:41:14.199Z,56.47
2019-02-23T22:46:18.770Z,55.81
2019-02-23T22:51:21.087Z,55.17
2019-02-23T22:56:26.213Z,57.21
2019-02-23T23:01:28.521Z,56.50
2019-02-23T23:06:33.306Z,56.55
2019-02-23T23:11:39.929Z,56.70
2019-02-23T23:16:42.172Z,56.53
2019-02-23T23:21:48.124Z,57.98
2019-02-23T23:26:52.076Z,57.41
2019-02-23T23:31:56.134Z,57.64
2019-02-23T23:37:00.879Z,57.82
2019-02-23T23:42:03.187Z,57.59
2019-02-23T23:47:05.276Z,57.89
2019-02-23T23:52:08.436Z,57.82
2019-02-23T23:57:10.486Z,58.49
